sensor_id;sensor_type;location;lat;lon;timestamp;pressure;altitude;pressure_sealevel;temperature;humidity
26376;BME280;30544;42.196;24.336;2023-04-08T00:00:30;99329.50;;;10.17;nan
26376;BME280;30544;42.196;24.336;2023-04-08T00:02:57;99328.06;;;10.03;nan
26376;BME280;30544;42.196;24.336;2023-04-08T00:05:24;99328.56;;;10.00;nan
26376;BME280;30544;42.196;24.336;2023-04-08T00:07:50;99336.13;;;10.16;nan
26376;BME280;30544;42.196;24.336;2023-04-08T00:10:17;99333.75;;;10.31;nan
26376;BME280;30544;42.196;24.336;2023-04-08T00:12:46;99335.78;;;10.01;nan
26376;BME280;30544;42.196;24.336;2023-04-08T00:15:13;99332.53;;;9.92;nan
26376;BME280;30544;42.196;24.336;2023-04-08T00:17:40;99339.03;;;9.98;nan
26376;BME280;30544;42.196;24.336;2023-04-08T00:20:07;99342.41;;;10.00;nan
26376;BME280;30544;42.196;24.336;2023-04-08T00:22:34;99336.28;;;10.21;nan
26376;BME280;30544;42.196;24.336;2023-04-08T00:25:01;99328.22;;;10.08;nan
26376;BME280;30544;42.196;24.336;2023-04-08T00:27:31;99333.25;;;9.76;nan
26376;BME280;30544;42.196;24.336;2023-04-08T00:29:59;99342.75;;;9.68;nan
26376;BME280;30544;42.196;24.336;2023-04-08T00:32:26;99339.38;;;9.89;nan
26376;BME280;30544;42.196;24.336;2023-04-08T00:34:53;99333.16;;;9.94;nan
26376;BME280;30544;42.196;24.336;2023-04-08T00:37:20;99343.50;;;9.99;nan
26376;BME280;30544;42.196;24.336;2023-04-08T00:39:47;99339.28;;;10.08;nan
26376;BME280;30544;42.196;24.336;2023-04-08T00:42:14;99344.47;;;10.16;nan
26376;BME280;30544;42.196;24.336;2023-04-08T00:44:41;99355.19;;;10.12;nan
26376;BME280;30544;42.196;24.336;2023-04-08T00:47:12;99353.38;;;10.18;nan
26376;BME280;30544;42.196;24.336;2023-04-08T00:49:39;99353.03;;;10.26;nan
26376;BME280;30544;42.196;24.336;2023-04-08T00:52:06;99344.84;;;10.31;nan
26376;BME280;30544;42.196;24.336;2023-04-08T00:54:33;99350.84;;;10.16;nan
26376;BME280;30544;42.196;24.336;2023-04-08T00:57:02;99339.06;;;10.09;nan
26376;BME280;30544;42.196;24.336;2023-04-08T00:59:30;99338.81;;;10.11;nan
26376;BME280;30544;42.196;24.336;2023-04-08T01:02:06;99340.84;;;10.04;nan
26376;BME280;30544;42.196;24.336;2023-04-08T01:04:42;99343.63;;;10.15;nan
26376;BME280;30544;42.196;24.336;2023-04-08T01:07:14;99345.78;;;10.13;nan
26376;BME280;30544;42.196;24.336;2023-04-08T01:09:45;99349.75;;;10.06;nan
26376;BME280;30544;42.196;24.336;2023-04-08T01:12:19;99344.09;;;10.12;nan
26376;BME280;30544;42.196;24.336;2023-04-08T01:14:47;99354.00;;;10.32;nan
26376;BME280;30544;42.196;24.336;2023-04-08T01:17:18;99354.13;;;10.25;nan
26376;BME280;30544;42.196;24.336;2023-04-08T01:19:47;99350.97;;;10.33;nan
26376;BME280;30544;42.196;24.336;2023-04-08T01:22:23;99356.63;;;10.15;nan
26376;BME280;30544;42.196;24.336;2023-04-08T01:24:58;99354.22;;;10.18;nan
26376;BME280;30544;42.196;24.336;2023-04-08T01:27:30;99355.78;;;10.03;nan
26376;BME280;30544;42.196;24.336;2023-04-08T01:29:57;99358.19;;;10.11;nan
26376;BME280;30544;42.196;24.336;2023-04-08T01:32:25;99360.00;;;10.17;nan
26376;BME280;30544;42.196;24.336;2023-04-08T01:34:55;99359.16;;;10.05;nan
26376;BME280;30544;42.196;24.336;2023-04-08T01:37:24;99359.41;;;10.15;nan
26376;BME280;30544;42.196;24.336;2023-04-08T01:39:54;99355.09;;;10.31;nan
26376;BME280;30544;42.196;24.336;2023-04-08T01:42:23;99355.91;;;10.43;nan
26376;BME280;30544;42.196;24.336;2023-04-08T01:44:55;99361.38;;;10.26;nan
26376;BME280;30544;42.196;24.336;2023-04-08T01:47:23;99366.13;;;10.19;nan
26376;BME280;30544;42.196;24.336;2023-04-08T01:49:51;99358.84;;;10.24;nan
26376;BME280;30544;42.196;24.336;2023-04-08T01:52:19;99362.56;;;10.30;nan
26376;BME280;30544;42.196;24.336;2023-04-08T01:54:46;99364.47;;;10.41;nan
26376;BME280;30544;42.196;24.336;2023-04-08T01:57:16;99362.16;;;10.38;nan
26376;BME280;30544;42.196;24.336;2023-04-08T01:59:47;99371.56;;;10.37;nan
26376;BME280;30544;42.196;24.336;2023-04-08T02:02:19;99377.88;;;10.33;nan
26376;BME280;30544;42.196;24.336;2023-04-08T02:04:47;99382.66;;;10.37;nan
26376;BME280;30544;42.196;24.336;2023-04-08T02:07:13;99388.56;;;10.41;nan
26376;BME280;30544;42.196;24.336;2023-04-08T02:09:41;99388.56;;;10.41;nan
26376;BME280;30544;42.196;24.336;2023-04-08T02:12:07;99395.00;;;10.41;nan
26376;BME280;30544;42.196;24.336;2023-04-08T02:14:34;99390.50;;;10.40;nan
26376;BME280;30544;42.196;24.336;2023-04-08T02:17:06;99400.13;;;10.14;nan
26376;BME280;30544;42.196;24.336;2023-04-08T02:19:40;99393.53;;;10.27;nan
26376;BME280;30544;42.196;24.336;2023-04-08T02:22:16;99392.31;;;10.35;nan
26376;BME280;30544;42.196;24.336;2023-04-08T02:24:46;99401.38;;;10.30;nan
26376;BME280;30544;42.196;24.336;2023-04-08T02:27:15;99398.09;;;10.21;nan
26376;BME280;30544;42.196;24.336;2023-04-08T02:29:44;99402.47;;;10.29;nan
26376;BME280;30544;42.196;24.336;2023-04-08T02:32:13;99402.56;;;10.34;nan
26376;BME280;30544;42.196;24.336;2023-04-08T02:34:42;99409.09;;;10.28;nan
26376;BME280;30544;42.196;24.336;2023-04-08T02:37:09;99419.88;;;10.18;nan
26376;BME280;30544;42.196;24.336;2023-04-08T02:39:36;99411.34;;;10.19;nan
26376;BME280;30544;42.196;24.336;2023-04-08T02:42:03;99410.88;;;10.22;nan
26376;BME280;30544;42.196;24.336;2023-04-08T02:44:30;99406.28;;;10.16;nan
26376;BME280;30544;42.196;24.336;2023-04-08T02:46:57;99408.81;;;10.18;nan
26376;BME280;30544;42.196;24.336;2023-04-08T02:49:24;99408.56;;;10.19;nan
26376;BME280;30544;42.196;24.336;2023-04-08T02:51:52;99409.66;;;10.18;nan
26376;BME280;30544;42.196;24.336;2023-04-08T02:54:19;99406.28;;;10.16;nan
26376;BME280;30544;42.196;24.336;2023-04-08T02:56:45;99400.13;;;10.14;nan
26376;BME280;30544;42.196;24.336;2023-04-08T02:59:12;99409.41;;;10.20;nan
26376;BME280;30544;42.196;24.336;2023-04-08T03:01:39;99410.63;;;10.12;nan
26376;BME280;30544;42.196;24.336;2023-04-08T03:04:06;99415.53;;;9.99;nan
26376;BME280;30544;42.196;24.336;2023-04-08T03:06:32;99416.75;;;10.03;nan
26376;BME280;30544;42.196;24.336;2023-04-08T03:09:00;99419.53;;;10.14;nan
26376;BME280;30544;42.196;24.336;2023-04-08T03:11:27;99419.53;;;10.14;nan
26376;BME280;30544;42.196;24.336;2023-04-08T03:13:54;99409.41;;;10.08;nan
26376;BME280;30544;42.196;24.336;2023-04-08T03:16:21;99408.56;;;10.08;nan
26376;BME280;30544;42.196;24.336;2023-04-08T03:18:48;99415.31;;;10.12;nan
26376;BME280;30544;42.196;24.336;2023-04-08T03:21:15;99416.16;;;10.12;nan
26376;BME280;30544;42.196;24.336;2023-04-08T03:23:42;99417.38;;;10.16;nan
26376;BME280;30544;42.196;24.336;2023-04-08T03:26:10;99424.22;;;10.14;nan
26376;BME280;30544;42.196;24.336;2023-04-08T03:28:37;99434.84;;;10.17;nan
26376;BME280;30544;42.196;24.336;2023-04-08T03:31:04;99428.66;;;10.03;nan
26376;BME280;30544;42.196;24.336;2023-04-08T03:33:31;99427.34;;;10.06;nan
26376;BME280;30544;42.196;24.336;2023-04-08T03:35:57;99428.19;;;9.94;nan
26376;BME280;30544;42.196;24.336;2023-04-08T03:38:24;99436.34;;;9.78;nan
26376;BME280;30544;42.196;24.336;2023-04-08T03:40:51;99445.38;;;9.85;nan
26376;BME280;30544;42.196;24.336;2023-04-08T03:43:19;99441.91;;;9.78;nan
26376;BME280;30544;42.196;24.336;2023-04-08T03:45:46;99441.66;;;9.79;nan
26376;BME280;30544;42.196;24.336;2023-04-08T03:48:13;99448.00;;;9.68;nan
26376;BME280;30544;42.196;24.336;2023-04-08T03:50:39;99439.13;;;9.78;nan
26376;BME280;30544;42.196;24.336;2023-04-08T03:53:06;99446.22;;;9.85;nan
26376;BME280;30544;42.196;24.336;2023-04-08T03:55:35;99450.13;;;9.96;nan
26376;BME280;30544;42.196;24.336;2023-04-08T03:58:02;99454.78;;;9.84;nan
26376;BME280;30544;42.196;24.336;2023-04-08T04:00:30;99449.38;;;9.89;nan
26376;BME280;30544;42.196;24.336;2023-04-08T04:02:57;99452.16;;;10.01;nan
26376;BME280;30544;42.196;24.336;2023-04-08T04:05:24;99458.66;;;9.94;nan
26376;BME280;30544;42.196;24.336;2023-04-08T04:07:50;99456.94;;;9.82;nan
26376;BME280;30544;42.196;24.336;2023-04-08T04:10:17;99451.16;;;9.83;nan
26376;BME280;30544;42.196;24.336;2023-04-08T04:12:45;99452.78;;;9.91;nan
26376;BME280;30544;42.196;24.336;2023-04-08T04:15:12;99454.91;;;9.77;nan
26376;BME280;30544;42.196;24.336;2023-04-08T04:17:40;99459.59;;;9.88;nan
26376;BME280;30544;42.196;24.336;2023-04-08T04:20:08;99459.38;;;9.90;nan
26376;BME280;30544;42.196;24.336;2023-04-08T04:22:34;99458.06;;;9.92;nan
26376;BME280;30544;42.196;24.336;2023-04-08T04:25:01;99465.16;;;9.88;nan
26376;BME280;30544;42.196;24.336;2023-04-08T04:27:28;99474.34;;;10.01;nan
26376;BME280;30544;42.196;24.336;2023-04-08T04:29:55;99464.94;;;10.02;nan
26376;BME280;30544;42.196;24.336;2023-04-08T04:32:21;99473.38;;;10.07;nan
26376;BME280;30544;42.196;24.336;2023-04-08T04:34:50;99472.91;;;10.10;nan
26376;BME280;30544;42.196;24.336;2023-04-08T04:37:16;99472.41;;;10.01;nan
26376;BME280;30544;42.196;24.336;2023-04-08T04:39:43;99473.84;;;10.04;nan
26376;BME280;30544;42.196;24.336;2023-04-08T04:42:10;99479.41;;;10.04;nan
26376;BME280;30544;42.196;24.336;2023-04-08T04:44:37;99470.84;;;10.05;nan
26376;BME280;30544;42.196;24.336;2023-04-08T04:47:04;99468.06;;;10.05;nan
26376;BME280;30544;42.196;24.336;2023-04-08T04:49:31;99470.75;;;10.12;nan
26376;BME280;30544;42.196;24.336;2023-04-08T04:51:59;99479.19;;;10.17;nan
26376;BME280;30544;42.196;24.336;2023-04-08T04:54:25;99482.91;;;10.11;nan
26376;BME280;30544;42.196;24.336;2023-04-08T04:56:52;99482.53;;;10.07;nan
26376;BME280;30544;42.196;24.336;2023-04-08T04:59:19;99491.25;;;10.22;nan
26376;BME280;30544;42.196;24.336;2023-04-08T05:01:46;99499.19;;;10.19;nan
26376;BME280;30544;42.196;24.336;2023-04-08T05:04:12;99489.75;;;9.97;nan
26376;BME280;30544;42.196;24.336;2023-04-08T05:06:39;99497.94;;;9.91;nan
26376;BME280;30544;42.196;24.336;2023-04-08T05:09:08;99505.09;;;10.11;nan
26376;BME280;30544;42.196;24.336;2023-04-08T05:11:35;99492.25;;;9.86;nan
26376;BME280;30544;42.196;24.336;2023-04-08T05:14:04;99497.47;;;9.94;nan
26376;BME280;30544;42.196;24.336;2023-04-08T05:16:31;99493.44;;;9.90;nan
26376;BME280;30544;42.196;24.336;2023-04-08T05:18:58;99491.81;;;10.01;nan
26376;BME280;30544;42.196;24.336;2023-04-08T05:21:25;99494.19;;;10.28;nan
26376;BME280;30544;42.196;24.336;2023-04-08T05:23:52;99499.03;;;10.44;nan
26376;BME280;30544;42.196;24.336;2023-04-08T05:26:20;99497.56;;;10.53;nan
26376;BME280;30544;42.196;24.336;2023-04-08T05:28:47;99496.13;;;10.50;nan
26376;BME280;30544;42.196;24.336;2023-04-08T05:31:14;99499.84;;;10.56;nan
26376;BME280;30544;42.196;24.336;2023-04-08T05:33:41;99504.09;;;10.59;nan
26376;BME280;30544;42.196;24.336;2023-04-08T05:36:09;99500.47;;;10.70;nan
26376;BME280;30544;42.196;24.336;2023-04-08T05:38:36;99512.75;;;10.97;nan
26376;BME280;30544;42.196;24.336;2023-04-08T05:41:03;99507.56;;;11.01;nan
26376;BME280;30544;42.196;24.336;2023-04-08T05:43:33;99507.03;;;11.15;nan
26376;BME280;30544;42.196;24.336;2023-04-08T05:45:59;99514.88;;;11.19;nan
26376;BME280;30544;42.196;24.336;2023-04-08T05:48:26;99510.06;;;11.26;nan
26376;BME280;30544;42.196;24.336;2023-04-08T05:50:53;99512.94;;;11.31;nan
26376;BME280;30544;42.196;24.336;2023-04-08T05:53:20;99511.25;;;11.30;nan
26376;BME280;30544;42.196;24.336;2023-04-08T05:55:47;99504.19;;;11.39;nan
26376;BME280;30544;42.196;24.336;2023-04-08T05:58:14;99511.94;;;11.37;nan
26376;BME280;30544;42.196;24.336;2023-04-08T06:00:42;99503.00;;;11.35;nan
26376;BME280;30544;42.196;24.336;2023-04-08T06:03:08;99506.31;;;11.60;nan
26376;BME280;30544;42.196;24.336;2023-04-08T06:05:35;99494.88;;;11.73;nan
26376;BME280;30544;42.196;24.336;2023-04-08T06:08:04;99492.91;;;11.57;nan
26376;BME280;30544;42.196;24.336;2023-04-08T06:10:31;99503.88;;;11.64;nan
26376;BME280;30544;42.196;24.336;2023-04-08T06:12:58;99499.34;;;11.74;nan
26376;BME280;30544;42.196;24.336;2023-04-08T06:15:24;99502.13;;;11.74;nan
26376;BME280;30544;42.196;24.336;2023-04-08T06:17:53;99495.53;;;11.92;nan
26376;BME280;30544;42.196;24.336;2023-04-08T06:20:20;99498.34;;;12.09;nan
26376;BME280;30544;42.196;24.336;2023-04-08T06:22:47;99494.50;;;12.27;nan
26376;BME280;30544;42.196;24.336;2023-04-08T06:25:14;99496.84;;;12.35;nan
26376;BME280;30544;42.196;24.336;2023-04-08T06:27:41;99497.34;;;12.15;nan
26376;BME280;30544;42.196;24.336;2023-04-08T06:30:08;99497.50;;;12.25;nan
26376;BME280;30544;42.196;24.336;2023-04-08T06:32:35;99492.22;;;12.41;nan
26376;BME280;30544;42.196;24.336;2023-04-08T06:35:05;99487.06;;;12.66;nan
26376;BME280;30544;42.196;24.336;2023-04-08T06:37:32;99488.22;;;12.70;nan
26376;BME280;30544;42.196;24.336;2023-04-08T06:40:03;99494.63;;;12.71;nan
26376;BME280;30544;42.196;24.336;2023-04-08T06:42:30;99486.16;;;12.60;nan
26376;BME280;30544;42.196;24.336;2023-04-08T06:44:57;99488.44;;;12.63;nan
26376;BME280;30544;42.196;24.336;2023-04-08T06:47:24;99493.88;;;12.75;nan
26376;BME280;30544;42.196;24.336;2023-04-08T06:49:50;99490.00;;;12.59;nan
26376;BME280;30544;42.196;24.336;2023-04-08T06:52:20;99484.44;;;12.59;nan
26376;BME280;30544;42.196;24.336;2023-04-08T06:54:46;99491.00;;;12.87;nan
26376;BME280;30544;42.196;24.336;2023-04-08T06:57:13;99487.22;;;13.15;nan
26376;BME280;30544;42.196;24.336;2023-04-08T06:59:40;99487.38;;;13.47;nan
26376;BME280;30544;42.196;24.336;2023-04-08T07:02:09;99487.13;;;13.10;nan
26376;BME280;30544;42.196;24.336;2023-04-08T07:04:36;99486.88;;;13.28;nan
26376;BME280;30544;42.196;24.336;2023-04-08T07:07:03;99487.63;;;13.23;nan
26376;BME280;30544;42.196;24.336;2023-04-08T07:09:31;99491.78;;;12.65;nan
26376;BME280;30544;42.196;24.336;2023-04-08T07:11:58;99490.78;;;12.55;nan
26376;BME280;30544;42.196;24.336;2023-04-08T07:14:25;99496.06;;;12.06;nan
26376;BME280;30544;42.196;24.336;2023-04-08T07:16:51;99490.28;;;12.24;nan
26376;BME280;30544;42.196;24.336;2023-04-08T07:19:18;99485.72;;;12.52;nan
26376;BME280;30544;42.196;24.336;2023-04-08T07:21:45;99488.09;;;12.60;nan
26376;BME280;30544;42.196;24.336;2023-04-08T07:24:12;99492.78;;;12.26;nan
26376;BME280;30544;42.196;24.336;2023-04-08T07:26:40;99498.97;;;12.28;nan
26376;BME280;30544;42.196;24.336;2023-04-08T07:29:07;99500.28;;;12.09;nan
26376;BME280;30544;42.196;24.336;2023-04-08T07:31:34;99501.25;;;12.48;nan
26376;BME280;30544;42.196;24.336;2023-04-08T07:34:00;99500.75;;;12.89;nan
26376;BME280;30544;42.196;24.336;2023-04-08T07:36:27;99501.03;;;13.10;nan
26376;BME280;30544;42.196;24.336;2023-04-08T07:38:54;99501.22;;;13.64;nan
26376;BME280;30544;42.196;24.336;2023-04-08T07:41:21;99499.19;;;13.81;nan
26376;BME280;30544;42.196;24.336;2023-04-08T07:43:49;99499.78;;;13.83;nan
26376;BME280;30544;42.196;24.336;2023-04-08T07:46:15;99497.78;;;14.37;nan
26376;BME280;30544;42.196;24.336;2023-04-08T07:48:42;99507.19;;;14.58;nan
26376;BME280;30544;42.196;24.336;2023-04-08T07:51:09;99498.59;;;14.65;nan
26376;BME280;30544;42.196;24.336;2023-04-08T07:53:36;99501.94;;;14.62;nan
26376;BME280;30544;42.196;24.336;2023-04-08T07:56:09;99504.63;;;14.89;nan
26376;BME280;30544;42.196;24.336;2023-04-08T07:58:36;99502.00;;;15.14;nan
26376;BME280;30544;42.196;24.336;2023-04-08T08:01:14;99504.91;;;14.87;nan
26376;BME280;30544;42.196;24.336;2023-04-08T08:03:40;99508.06;;;15.01;nan
26376;BME280;30544;42.196;24.336;2023-04-08T08:06:07;99512.09;;;15.25;nan
26376;BME280;30544;42.196;24.336;2023-04-08T08:08:34;99505.28;;;15.06;nan
26376;BME280;30544;42.196;24.336;2023-04-08T08:11:00;99501.00;;;14.93;nan
26376;BME280;30544;42.196;24.336;2023-04-08T08:13:27;99505.81;;;14.98;nan
26376;BME280;30544;42.196;24.336;2023-04-08T08:15:54;99500.81;;;15.05;nan
26376;BME280;30544;42.196;24.336;2023-04-08T08:18:22;99502.56;;;15.16;nan
26376;BME280;30544;42.196;24.336;2023-04-08T08:20:49;99500.97;;;15.30;nan
26376;BME280;30544;42.196;24.336;2023-04-08T08:23:16;99506.09;;;15.01;nan
26376;BME280;30544;42.196;24.336;2023-04-08T08:25:43;99501.88;;;15.51;nan
26376;BME280;30544;42.196;24.336;2023-04-08T08:28:09;99503.94;;;15.66;nan
26376;BME280;30544;42.196;24.336;2023-04-08T08:30:36;99503.03;;;15.55;nan
26376;BME280;30544;42.196;24.336;2023-04-08T08:33:03;99502.81;;;15.62;nan
26376;BME280;30544;42.196;24.336;2023-04-08T08:35:31;99508.81;;;15.44;nan
26376;BME280;30544;42.196;24.336;2023-04-08T08:37:58;99498.94;;;15.16;nan
26376;BME280;30544;42.196;24.336;2023-04-08T08:40:25;99498.44;;;15.29;nan
26376;BME280;30544;42.196;24.336;2023-04-08T08:42:52;99504.69;;;14.99;nan
26376;BME280;30544;42.196;24.336;2023-04-08T08:45:19;99502.38;;;14.86;nan
26376;BME280;30544;42.196;24.336;2023-04-08T08:47:46;99501.66;;;15.11;nan
26376;BME280;30544;42.196;24.336;2023-04-08T08:50:13;99501.00;;;15.41;nan
26376;BME280;30544;42.196;24.336;2023-04-08T08:52:47;99508.00;;;15.43;nan
26376;BME280;30544;42.196;24.336;2023-04-08T08:55:14;99503.41;;;15.74;nan
26376;BME280;30544;42.196;24.336;2023-04-08T08:57:41;99506.22;;;15.84;nan
26376;BME280;30544;42.196;24.336;2023-04-08T09:00:08;99499.88;;;16.14;nan
26376;BME280;30544;42.196;24.336;2023-04-08T09:02:35;99504.91;;;15.40;nan
26376;BME280;30544;42.196;24.336;2023-04-08T09:05:04;99500.59;;;15.74;nan
26376;BME280;30544;42.196;24.336;2023-04-08T09:07:35;99503.50;;;16.40;nan
26376;BME280;30544;42.196;24.336;2023-04-08T09:10:04;99502.13;;;16.58;nan
26376;BME280;30544;42.196;24.336;2023-04-08T09:12:31;99495.41;;;16.74;nan
26376;BME280;30544;42.196;24.336;2023-04-08T09:15:05;99490.34;;;16.46;nan
26376;BME280;30544;42.196;24.336;2023-04-08T09:17:33;99496.50;;;16.28;nan
26376;BME280;30544;42.196;24.336;2023-04-08T09:20:08;99503.50;;;16.20;nan
26376;BME280;30544;42.196;24.336;2023-04-08T09:22:54;99502.31;;;15.95;nan
26376;BME280;30544;42.196;24.336;2023-04-08T09:25:26;99503.47;;;16.10;nan
26376;BME280;30544;42.196;24.336;2023-04-08T09:27:53;99503.38;;;15.69;nan
26376;BME280;30544;42.196;24.336;2023-04-08T09:30:23;99500.63;;;15.79;nan
26376;BME280;30544;42.196;24.336;2023-04-08T09:32:52;99493.09;;;15.95;nan
26376;BME280;30544;42.196;24.336;2023-04-08T09:35:20;99490.56;;;15.83;nan
26376;BME280;30544;42.196;24.336;2023-04-08T09:37:48;99483.59;;;15.91;nan
26376;BME280;30544;42.196;24.336;2023-04-08T09:40:16;99486.47;;;16.47;nan
26376;BME280;30544;42.196;24.336;2023-04-08T09:42:46;99482.25;;;16.75;nan
26376;BME280;30544;42.196;24.336;2023-04-08T09:45:15;99475.53;;;16.81;nan
26376;BME280;30544;42.196;24.336;2023-04-08T09:48:00;99488.97;;;16.53;nan
26376;BME280;30544;42.196;24.336;2023-04-08T09:50:31;99481.94;;;16.10;nan
26376;BME280;30544;42.196;24.336;2023-04-08T09:53:16;99491.69;;;15.92;nan
26376;BME280;30544;42.196;24.336;2023-04-08T09:55:49;99491.16;;;16.11;nan
26376;BME280;30544;42.196;24.336;2023-04-08T09:58:20;99488.91;;;15.92;nan
26376;BME280;30544;42.196;24.336;2023-04-08T10:00:49;99486.69;;;16.00;nan
26376;BME280;30544;42.196;24.336;2023-04-08T10:03:25;99476.66;;;16.39;nan
26376;BME280;30544;42.196;24.336;2023-04-08T10:05:53;99476.94;;;16.73;nan
26376;BME280;30544;42.196;24.336;2023-04-08T10:08:21;99463.78;;;16.64;nan
26376;BME280;30544;42.196;24.336;2023-04-08T10:10:49;99473.84;;;16.65;nan
26376;BME280;30544;42.196;24.336;2023-04-08T10:13:17;99477.50;;;16.65;nan
26376;BME280;30544;42.196;24.336;2023-04-08T10:15:45;99476.53;;;15.73;nan
26376;BME280;30544;42.196;24.336;2023-04-08T10:18:31;99478.59;;;16.03;nan
26376;BME280;30544;42.196;24.336;2023-04-08T10:20:59;99460.97;;;16.18;nan
26376;BME280;30544;42.196;24.336;2023-04-08T10:23:53;99465.44;;;16.44;nan
26376;BME280;30544;42.196;24.336;2023-04-08T10:26:31;99462.63;;;16.29;nan
26376;BME280;30544;42.196;24.336;2023-04-08T10:29:31;99456.19;;;16.59;nan
26376;BME280;30544;42.196;24.336;2023-04-08T10:31:58;99462.66;;;16.80;nan
26376;BME280;30544;42.196;24.336;2023-04-08T10:34:27;99450.81;;;17.08;nan
26376;BME280;30544;42.196;24.336;2023-04-08T10:36:55;99438.03;;;16.51;nan
26376;BME280;30544;42.196;24.336;2023-04-08T10:39:24;99439.63;;;17.03;nan
26376;BME280;30544;42.196;24.336;2023-04-08T10:41:51;99431.75;;;17.16;nan
26376;BME280;30544;42.196;24.336;2023-04-08T10:44:19;99431.19;;;17.13;nan
26376;BME280;30544;42.196;24.336;2023-04-08T10:46:48;99428.59;;;17.32;nan
26376;BME280;30544;42.196;24.336;2023-04-08T10:49:16;99435.28;;;17.36;nan
26376;BME280;30544;42.196;24.336;2023-04-08T10:51:43;99425.25;;;17.30;nan
26376;BME280;30544;42.196;24.336;2023-04-08T10:54:12;99431.34;;;17.42;nan
26376;BME280;30544;42.196;24.336;2023-04-08T10:56:46;99428.69;;;17.07;nan
26376;BME280;30544;42.196;24.336;2023-04-08T10:59:14;99424.72;;;17.18;nan
26376;BME280;30544;42.196;24.336;2023-04-08T11:01:43;99426.56;;;17.48;nan
26376;BME280;30544;42.196;24.336;2023-04-08T11:04:13;99427.31;;;17.64;nan
26376;BME280;30544;42.196;24.336;2023-04-08T11:06:41;99427.88;;;17.61;nan
26376;BME280;30544;42.196;24.336;2023-04-08T11:09:09;99432.00;;;17.84;nan
26376;BME280;30544;42.196;24.336;2023-04-08T11:11:36;99419.41;;;17.76;nan
26376;BME280;30544;42.196;24.336;2023-04-08T11:14:03;99413.75;;;17.86;nan
26376;BME280;30544;42.196;24.336;2023-04-08T11:16:30;99420.09;;;17.97;nan
26376;BME280;30544;42.196;24.336;2023-04-08T11:18:58;99415.00;;;18.04;nan
26376;BME280;30544;42.196;24.336;2023-04-08T11:21:27;99412.44;;;18.08;nan
26376;BME280;30544;42.196;24.336;2023-04-08T11:23:55;99416.63;;;18.10;nan
26376;BME280;30544;42.196;24.336;2023-04-08T11:26:22;99412.69;;;18.16;nan
26376;BME280;30544;42.196;24.336;2023-04-08T11:28:51;99417.75;;;18.14;nan
26376;BME280;30544;42.196;24.336;2023-04-08T11:31:18;99410.28;;;17.99;nan
26376;BME280;30544;42.196;24.336;2023-04-08T11:33:46;99413.16;;;17.89;nan
26376;BME280;30544;42.196;24.336;2023-04-08T11:36:16;99411.38;;;18.03;nan
26376;BME280;30544;42.196;24.336;2023-04-08T11:38:44;99404.88;;;18.08;nan
26376;BME280;30544;42.196;24.336;2023-04-08T11:41:12;99410.38;;;17.84;nan
26376;BME280;30544;42.196;24.336;2023-04-08T11:43:50;99401.88;;;17.99;nan
26376;BME280;30544;42.196;24.336;2023-04-08T11:46:17;99391.25;;;18.25;nan
26376;BME280;30544;42.196;24.336;2023-04-08T11:48:56;99397.50;;;18.17;nan
26376;BME280;30544;42.196;24.336;2023-04-08T11:51:23;99394.34;;;17.90;nan
26376;BME280;30544;42.196;24.336;2023-04-08T11:53:52;99397.47;;;18.22;nan
26376;BME280;30544;42.196;24.336;2023-04-08T11:56:19;99394.66;;;18.22;nan
26376;BME280;30544;42.196;24.336;2023-04-08T11:58:48;99390.94;;;17.98;nan
26376;BME280;30544;42.196;24.336;2023-04-08T12:01:14;99385.25;;;17.69;nan
26376;BME280;30544;42.196;24.336;2023-04-08T12:03:53;99373.38;;;18.16;nan
26376;BME280;30544;42.196;24.336;2023-04-08T12:06:20;99380.50;;;18.03;nan
26376;BME280;30544;42.196;24.336;2023-04-08T12:08:47;99372.44;;;18.26;nan
26376;BME280;30544;42.196;24.336;2023-04-08T12:11:16;99376.59;;;18.33;nan
26376;BME280;30544;42.196;24.336;2023-04-08T12:13:42;99372.59;;;18.40;nan
26376;BME280;30544;42.196;24.336;2023-04-08T12:16:09;99377.00;;;18.51;nan
26376;BME280;30544;42.196;24.336;2023-04-08T12:18:36;99367.97;;;18.54;nan
26376;BME280;30544;42.196;24.336;2023-04-08T12:21:03;99368.44;;;18.61;nan
26376;BME280;30544;42.196;24.336;2023-04-08T12:23:30;99366.31;;;18.53;nan
26376;BME280;30544;42.196;24.336;2023-04-08T12:25:57;99369.44;;;18.75;nan
26376;BME280;30544;42.196;24.336;2023-04-08T12:28:25;99361.56;;;18.77;nan
26376;BME280;30544;42.196;24.336;2023-04-08T12:30:51;99366.56;;;18.80;nan
26376;BME280;30544;42.196;24.336;2023-04-08T12:33:18;99362.47;;;18.73;nan
26376;BME280;30544;42.196;24.336;2023-04-08T12:35:45;99349.78;;;18.75;nan
26376;BME280;30544;42.196;24.336;2023-04-08T12:38:12;99339.28;;;18.86;nan
26376;BME280;30544;42.196;24.336;2023-04-08T12:40:39;99342.56;;;18.69;nan
26376;BME280;30544;42.196;24.336;2023-04-08T12:43:05;99338.00;;;18.97;nan
26376;BME280;30544;42.196;24.336;2023-04-08T12:45:33;99332.44;;;18.92;nan
26376;BME280;30544;42.196;24.336;2023-04-08T12:48:00;99329.81;;;18.77;nan
26376;BME280;30544;42.196;24.336;2023-04-08T12:50:27;99331.38;;;18.64;nan
26376;BME280;30544;42.196;24.336;2023-04-08T12:52:54;99325.47;;;18.89;nan
26376;BME280;30544;42.196;24.336;2023-04-08T12:55:21;99317.91;;;19.09;nan
26376;BME280;30544;42.196;24.336;2023-04-08T12:57:49;99330.16;;;19.18;nan
26376;BME280;30544;42.196;24.336;2023-04-08T13:00:16;99315.63;;;19.11;nan
26376;BME280;30544;42.196;24.336;2023-04-08T13:02:45;99315.00;;;19.14;nan
26376;BME280;30544;42.196;24.336;2023-04-08T13:05:12;99311.03;;;18.96;nan
26376;BME280;30544;42.196;24.336;2023-04-08T13:07:38;99311.94;;;18.91;nan
26376;BME280;30544;42.196;24.336;2023-04-08T13:10:06;99304.19;;;18.83;nan
26376;BME280;30544;42.196;24.336;2023-04-08T13:12:33;99306.06;;;18.69;nan
26376;BME280;30544;42.196;24.336;2023-04-08T13:15:00;99294.28;;;18.67;nan
26376;BME280;30544;42.196;24.336;2023-04-08T13:17:30;99293.44;;;18.38;nan